KAGC/AGC METAR and TAF weather

Enter ICAO airport designator
Station Type Date Time Source
KAGC METAR 2024/06/14 00:53 UTC NOAA

KAGC 140053Z 20006KT 10SM CLR 26/12 A2995 RMK AO2 SLP136 T02610122


Station Type Date Time Source
KAGC Decoded METAR 2024/06/14 00:53 UTC NOAA

PITTSBURGH ALLEGHENY CTY., PA, United States (KAGC) 40-21N 079-55W 389M
Jun 13, 2024 - 08:53 PM EDT / 2024.06.14 0053 UTC
Wind: from the SSW (200 degrees) at 7 MPH (6 KT):0
Visibility: 10 mile(s):0
Sky conditions: clear
Temperature: 79.0 F (26.1 C)
Dew Point: 54.0 F (12.2 C)
Relative Humidity: 42%
Pressure (altimeter): 29.95 in. Hg (1014 hPa)
ob: KAGC 140053Z 20006KT 10SM CLR 26/12 A2995 RMK AO2 SLP136 T02610122
cycle: 1

Station Type Date Time Source
KAGC TAF 2024/06/13 18:22 UTC NOAA